sensor_id;sensor_type;location;lat;lon;timestamp;P1;durP1;ratioP1;P2;durP2;ratioP2
35026;SDS011;60696;51.426;6.934;2022-09-27T00:00:31;13.88;;;6.40;;
35026;SDS011;60696;51.426;6.934;2022-09-27T00:02:57;13.00;;;5.47;;
35026;SDS011;60696;51.426;6.934;2022-09-27T00:05:23;9.77;;;4.97;;
35026;SDS011;60696;51.426;6.934;2022-09-27T00:07:48;11.95;;;4.50;;
35026;SDS011;60696;51.426;6.934;2022-09-27T00:10:14;12.95;;;3.80;;
35026;SDS011;60696;51.426;6.934;2022-09-27T00:12:40;8.85;;;2.92;;
35026;SDS011;60696;51.426;6.934;2022-09-27T00:15:06;9.50;;;2.90;;
35026;SDS011;60696;51.426;6.934;2022-09-27T00:17:34;9.57;;;3.25;;
35026;SDS011;60696;51.426;6.934;2022-09-27T00:20:00;8.93;;;2.72;;
35026;SDS011;60696;51.426;6.934;2022-09-27T00:22:27;11.57;;;2.83;;
35026;SDS011;60696;51.426;6.934;2022-09-27T00:24:52;10.10;;;2.85;;
35026;SDS011;60696;51.426;6.934;2022-09-27T00:27:18;8.50;;;2.40;;
35026;SDS011;60696;51.426;6.934;2022-09-27T00:29:45;14.13;;;2.95;;
35026;SDS011;60696;51.426;6.934;2022-09-27T00:32:11;11.48;;;1.98;;
35026;SDS011;60696;51.426;6.934;2022-09-27T00:34:38;13.93;;;1.63;;
35026;SDS011;60696;51.426;6.934;2022-09-27T00:37:04;6.85;;;1.67;;
35026;SDS011;60696;51.426;6.934;2022-09-27T00:39:30;8.32;;;1.65;;
35026;SDS011;60696;51.426;6.934;2022-09-27T00:41:56;5.88;;;1.08;;
35026;SDS011;60696;51.426;6.934;2022-09-27T00:49:43;8.48;;;1.65;;
35026;SDS011;60696;51.426;6.934;2022-09-27T00:52:20;4.40;;;1.50;;
35026;SDS011;60696;51.426;6.934;2022-09-27T00:54:50;9.55;;;1.75;;
35026;SDS011;60696;51.426;6.934;2022-09-27T00:57:27;4.93;;;1.92;;
35026;SDS011;60696;51.426;6.934;2022-09-27T01:00:14;6.95;;;2.13;;
35026;SDS011;60696;51.426;6.934;2022-09-27T01:02:40;7.57;;;2.30;;
35026;SDS011;60696;51.426;6.934;2022-09-27T01:05:09;11.20;;;5.03;;
35026;SDS011;60696;51.426;6.934;2022-09-27T01:07:37;13.80;;;5.32;;
35026;SDS011;60696;51.426;6.934;2022-09-27T01:10:03;13.77;;;5.68;;
35026;SDS011;60696;51.426;6.934;2022-09-27T01:12:33;16.88;;;6.82;;
35026;SDS011;60696;51.426;6.934;2022-09-27T01:34:46;15.13;;;5.43;;
35026;SDS011;60696;51.426;6.934;2022-09-27T01:39:56;12.77;;;5.28;;
35026;SDS011;60696;51.426;6.934;2022-09-27T01:42:36;8.75;;;4.85;;
35026;SDS011;60696;51.426;6.934;2022-09-27T01:45:16;9.80;;;5.07;;
35026;SDS011;60696;51.426;6.934;2022-09-27T01:47:51;13.88;;;5.40;;
35026;SDS011;60696;51.426;6.934;2022-09-27T01:50:26;8.32;;;4.97;;
35026;SDS011;60696;51.426;6.934;2022-09-27T01:53:14;15.43;;;4.80;;
35026;SDS011;60696;51.426;6.934;2022-09-27T01:55:44;15.48;;;4.97;;
35026;SDS011;60696;51.426;6.934;2022-09-27T01:58:18;10.88;;;4.40;;
35026;SDS011;60696;51.426;6.934;2022-09-27T02:00:48;8.40;;;4.20;;
35026;SDS011;60696;51.426;6.934;2022-09-27T02:03:20;12.13;;;5.78;;
35026;SDS011;60696;51.426;6.934;2022-09-27T02:05:58;12.27;;;4.47;;
35026;SDS011;60696;51.426;6.934;2022-09-27T02:11:07;7.45;;;3.78;;
35026;SDS011;60696;51.426;6.934;2022-09-27T02:16:49;11.90;;;4.07;;
35026;SDS011;60696;51.426;6.934;2022-09-27T02:19:33;9.93;;;4.40;;
35026;SDS011;60696;51.426;6.934;2022-09-27T02:24:58;6.85;;;3.85;;
35026;SDS011;60696;51.426;6.934;2022-09-27T02:27:59;16.77;;;3.78;;
35026;SDS011;60696;51.426;6.934;2022-09-27T02:30:44;5.55;;;3.33;;
35026;SDS011;60696;51.426;6.934;2022-09-27T02:33:10;8.40;;;3.60;;
35026;SDS011;60696;51.426;6.934;2022-09-27T02:35:35;6.10;;;2.67;;
35026;SDS011;60696;51.426;6.934;2022-09-27T02:38:02;11.75;;;3.45;;
35026;SDS011;60696;51.426;6.934;2022-09-27T02:40:31;8.05;;;3.20;;
35026;SDS011;60696;51.426;6.934;2022-09-27T02:42:59;6.28;;;2.92;;
35026;SDS011;60696;51.426;6.934;2022-09-27T02:45:29;15.82;;;3.40;;
35026;SDS011;60696;51.426;6.934;2022-09-27T02:48:14;6.72;;;2.65;;
35026;SDS011;60696;51.426;6.934;2022-09-27T02:50:59;7.70;;;3.08;;
35026;SDS011;60696;51.426;6.934;2022-09-27T02:53:46;7.13;;;2.75;;
35026;SDS011;60696;51.426;6.934;2022-09-27T02:56:38;9.82;;;2.95;;
35026;SDS011;60696;51.426;6.934;2022-09-27T03:04:55;11.00;;;4.03;;
35026;SDS011;60696;51.426;6.934;2022-09-27T03:07:41;8.32;;;3.33;;
35026;SDS011;60696;51.426;6.934;2022-09-27T03:10:10;8.85;;;3.70;;
35026;SDS011;60696;51.426;6.934;2022-09-27T03:12:47;6.07;;;3.05;;
35026;SDS011;60696;51.426;6.934;2022-09-27T03:15:14;9.23;;;3.75;;
35026;SDS011;60696;51.426;6.934;2022-09-27T03:17:40;7.35;;;2.58;;
35026;SDS011;60696;51.426;6.934;2022-09-27T03:20:05;6.63;;;2.90;;
35026;SDS011;60696;51.426;6.934;2022-09-27T03:22:32;4.88;;;2.72;;
35026;SDS011;60696;51.426;6.934;2022-09-27T03:24:58;8.45;;;3.00;;
35026;SDS011;60696;51.426;6.934;2022-09-27T03:27:24;9.00;;;2.67;;
35026;SDS011;60696;51.426;6.934;2022-09-27T03:29:50;6.38;;;3.05;;
35026;SDS011;60696;51.426;6.934;2022-09-27T03:32:15;10.98;;;4.07;;
35026;SDS011;60696;51.426;6.934;2022-09-27T03:34:41;11.23;;;2.67;;
35026;SDS011;60696;51.426;6.934;2022-09-27T03:37:07;7.22;;;3.83;;
35026;SDS011;60696;51.426;6.934;2022-09-27T03:39:33;11.15;;;3.75;;
35026;SDS011;60696;51.426;6.934;2022-09-27T03:41:58;12.02;;;4.13;;
35026;SDS011;60696;51.426;6.934;2022-09-27T03:44:24;15.13;;;4.97;;
35026;SDS011;60696;51.426;6.934;2022-09-27T03:46:50;20.55;;;5.47;;
35026;SDS011;60696;51.426;6.934;2022-09-27T03:49:15;12.40;;;5.22;;
35026;SDS011;60696;51.426;6.934;2022-09-27T03:51:41;11.30;;;5.47;;
35026;SDS011;60696;51.426;6.934;2022-09-27T03:54:07;10.88;;;5.60;;
35026;SDS011;60696;51.426;6.934;2022-09-27T03:56:33;12.25;;;5.63;;
35026;SDS011;60696;51.426;6.934;2022-09-27T03:58:59;13.00;;;5.85;;
35026;SDS011;60696;51.426;6.934;2022-09-27T04:01:25;11.00;;;5.60;;
35026;SDS011;60696;51.426;6.934;2022-09-27T04:03:51;10.70;;;5.85;;
35026;SDS011;60696;51.426;6.934;2022-09-27T04:06:17;10.48;;;5.35;;
35026;SDS011;60696;51.426;6.934;2022-09-27T04:08:44;11.45;;;5.35;;
35026;SDS011;60696;51.426;6.934;2022-09-27T04:11:10;7.28;;;3.60;;
35026;SDS011;60696;51.426;6.934;2022-09-27T04:13:35;6.45;;;3.47;;
35026;SDS011;60696;51.426;6.934;2022-09-27T04:16:02;10.25;;;3.80;;
35026;SDS011;60696;51.426;6.934;2022-09-27T04:18:28;14.45;;;3.58;;
35026;SDS011;60696;51.426;6.934;2022-09-27T04:20:54;9.43;;;3.47;;
35026;SDS011;60696;51.426;6.934;2022-09-27T04:23:19;10.20;;;3.25;;
35026;SDS011;60696;51.426;6.934;2022-09-27T04:25:45;9.38;;;2.80;;
35026;SDS011;60696;51.426;6.934;2022-09-27T04:28:11;8.10;;;2.80;;
35026;SDS011;60696;51.426;6.934;2022-09-27T04:30:37;7.80;;;2.65;;
35026;SDS011;60696;51.426;6.934;2022-09-27T04:33:03;7.10;;;2.97;;
35026;SDS011;60696;51.426;6.934;2022-09-27T04:35:29;8.65;;;2.55;;
35026;SDS011;60696;51.426;6.934;2022-09-27T04:38:13;6.93;;;2.65;;
35026;SDS011;60696;51.426;6.934;2022-09-27T04:40:39;7.45;;;2.60;;
35026;SDS011;60696;51.426;6.934;2022-09-27T04:43:05;7.72;;;2.67;;
35026;SDS011;60696;51.426;6.934;2022-09-27T04:45:31;9.88;;;2.90;;
35026;SDS011;60696;51.426;6.934;2022-09-27T04:47:57;5.78;;;2.40;;
35026;SDS011;60696;51.426;6.934;2022-09-27T04:50:23;5.93;;;2.85;;
35026;SDS011;60696;51.426;6.934;2022-09-27T04:52:52;5.72;;;2.15;;
35026;SDS011;60696;51.426;6.934;2022-09-27T04:55:19;6.90;;;2.20;;
35026;SDS011;60696;51.426;6.934;2022-09-27T04:57:46;4.90;;;2.10;;
35026;SDS011;60696;51.426;6.934;2022-09-27T05:00:13;7.00;;;2.13;;
35026;SDS011;60696;51.426;6.934;2022-09-27T05:02:41;6.70;;;2.20;;
35026;SDS011;60696;51.426;6.934;2022-09-27T05:05:07;5.68;;;1.83;;
35026;SDS011;60696;51.426;6.934;2022-09-27T05:07:34;8.13;;;1.58;;
35026;SDS011;60696;51.426;6.934;2022-09-27T05:10:01;6.93;;;2.10;;
35026;SDS011;60696;51.426;6.934;2022-09-27T05:12:26;5.35;;;1.60;;
35026;SDS011;60696;51.426;6.934;2022-09-27T05:14:52;9.07;;;1.58;;
35026;SDS011;60696;51.426;6.934;2022-09-27T05:17:18;8.75;;;1.40;;
35026;SDS011;60696;51.426;6.934;2022-09-27T05:19:46;5.22;;;1.13;;
35026;SDS011;60696;51.426;6.934;2022-09-27T05:22:12;4.68;;;1.60;;
35026;SDS011;60696;51.426;6.934;2022-09-27T05:24:38;5.50;;;1.33;;
35026;SDS011;60696;51.426;6.934;2022-09-27T05:27:03;12.13;;;1.55;;
35026;SDS011;60696;51.426;6.934;2022-09-27T05:29:32;9.77;;;1.30;;
35026;SDS011;60696;51.426;6.934;2022-09-27T05:31:59;4.75;;;1.00;;
35026;SDS011;60696;51.426;6.934;2022-09-27T05:34:28;6.53;;;1.13;;
35026;SDS011;60696;51.426;6.934;2022-09-27T05:36:56;6.15;;;1.45;;
35026;SDS011;60696;51.426;6.934;2022-09-27T05:39:21;4.75;;;1.45;;
35026;SDS011;60696;51.426;6.934;2022-09-27T05:41:47;4.63;;;1.20;;
35026;SDS011;60696;51.426;6.934;2022-09-27T05:44:14;9.02;;;1.45;;
35026;SDS011;60696;51.426;6.934;2022-09-27T05:46:40;6.97;;;1.83;;
35026;SDS011;60696;51.426;6.934;2022-09-27T05:49:06;7.25;;;1.30;;
35026;SDS011;60696;51.426;6.934;2022-09-27T05:51:32;9.80;;;1.13;;
35026;SDS011;60696;51.426;6.934;2022-09-27T05:53:58;8.38;;;1.30;;
35026;SDS011;60696;51.426;6.934;2022-09-27T05:56:24;5.55;;;1.55;;
35026;SDS011;60696;51.426;6.934;2022-09-27T05:58:50;7.75;;;1.58;;
35026;SDS011;60696;51.426;6.934;2022-09-27T06:01:15;3.33;;;1.08;;
35026;SDS011;60696;51.426;6.934;2022-09-27T06:03:42;6.13;;;1.77;;
35026;SDS011;60696;51.426;6.934;2022-09-27T06:06:08;8.23;;;1.15;;
35026;SDS011;60696;51.426;6.934;2022-09-27T06:08:35;4.35;;;1.10;;
35026;SDS011;60696;51.426;6.934;2022-09-27T06:11:06;5.72;;;0.95;;
35026;SDS011;60696;51.426;6.934;2022-09-27T06:13:33;10.98;;;1.45;;
35026;SDS011;60696;51.426;6.934;2022-09-27T06:16:00;5.68;;;1.20;;
35026;SDS011;60696;51.426;6.934;2022-09-27T06:18:27;7.40;;;1.30;;
35026;SDS011;60696;51.426;6.934;2022-09-27T06:20:53;6.93;;;1.55;;
35026;SDS011;60696;51.426;6.934;2022-09-27T06:23:20;3.25;;;1.20;;
35026;SDS011;60696;51.426;6.934;2022-09-27T06:25:47;6.38;;;1.02;;
35026;SDS011;60696;51.426;6.934;2022-09-27T06:28:14;9.60;;;1.17;;
35026;SDS011;60696;51.426;6.934;2022-09-27T06:30:41;8.68;;;1.30;;
35026;SDS011;60696;51.426;6.934;2022-09-27T06:33:09;7.10;;;1.50;;
35026;SDS011;60696;51.426;6.934;2022-09-27T06:35:37;6.68;;;1.65;;
35026;SDS011;60696;51.426;6.934;2022-09-27T06:38:03;10.57;;;1.77;;
35026;SDS011;60696;51.426;6.934;2022-09-27T06:40:31;7.22;;;2.35;;
35026;SDS011;60696;51.426;6.934;2022-09-27T06:43:07;9.70;;;2.28;;
35026;SDS011;60696;51.426;6.934;2022-09-27T06:45:34;5.88;;;1.80;;
35026;SDS011;60696;51.426;6.934;2022-09-27T06:48:01;11.25;;;2.22;;
35026;SDS011;60696;51.426;6.934;2022-09-27T06:50:28;3.78;;;1.60;;
35026;SDS011;60696;51.426;6.934;2022-09-27T06:52:54;6.15;;;1.50;;
35026;SDS011;60696;51.426;6.934;2022-09-27T06:55:20;5.47;;;1.50;;
35026;SDS011;60696;51.426;6.934;2022-09-27T06:57:46;7.13;;;1.52;;
35026;SDS011;60696;51.426;6.934;2022-09-27T07:00:30;4.03;;;1.35;;
35026;SDS011;60696;51.426;6.934;2022-09-27T07:02:56;6.70;;;1.38;;
35026;SDS011;60696;51.426;6.934;2022-09-27T07:05:28;3.40;;;1.08;;
35026;SDS011;60696;51.426;6.934;2022-09-27T07:07:55;6.53;;;1.00;;
35026;SDS011;60696;51.426;6.934;2022-09-27T07:10:22;2.75;;;1.00;;
35026;SDS011;60696;51.426;6.934;2022-09-27T07:12:49;4.00;;;1.20;;
35026;SDS011;60696;51.426;6.934;2022-09-27T07:15:17;4.60;;;1.02;;
35026;SDS011;60696;51.426;6.934;2022-09-27T07:17:45;3.70;;;1.00;;
35026;SDS011;60696;51.426;6.934;2022-09-27T07:20:11;2.63;;;0.93;;
35026;SDS011;60696;51.426;6.934;2022-09-27T07:22:39;5.75;;;1.33;;
35026;SDS011;60696;51.426;6.934;2022-09-27T07:25:06;3.92;;;1.10;;
35026;SDS011;60696;51.426;6.934;2022-09-27T07:27:32;4.03;;;1.05;;
35026;SDS011;60696;51.426;6.934;2022-09-27T07:29:59;2.28;;;0.75;;
35026;SDS011;60696;51.426;6.934;2022-09-27T07:32:25;4.15;;;0.95;;
35026;SDS011;60696;51.426;6.934;2022-09-27T07:34:50;3.38;;;1.15;;
35026;SDS011;60696;51.426;6.934;2022-09-27T07:37:16;7.35;;;1.20;;
35026;SDS011;60696;51.426;6.934;2022-09-27T07:39:42;7.20;;;1.30;;
35026;SDS011;60696;51.426;6.934;2022-09-27T07:42:08;3.78;;;1.52;;
35026;SDS011;60696;51.426;6.934;2022-09-27T07:44:34;5.32;;;1.33;;
35026;SDS011;60696;51.426;6.934;2022-09-27T07:47:00;4.50;;;1.50;;
35026;SDS011;60696;51.426;6.934;2022-09-27T07:49:25;5.45;;;2.35;;
35026;SDS011;60696;51.426;6.934;2022-09-27T07:51:51;5.28;;;2.40;;
35026;SDS011;60696;51.426;6.934;2022-09-27T07:54:17;4.85;;;2.05;;
35026;SDS011;60696;51.426;6.934;2022-09-27T07:56:46;4.82;;;1.73;;
35026;SDS011;60696;51.426;6.934;2022-09-27T07:59:11;6.18;;;1.73;;
35026;SDS011;60696;51.426;6.934;2022-09-27T08:01:37;3.28;;;1.30;;
35026;SDS011;60696;51.426;6.934;2022-09-27T08:04:03;4.53;;;1.70;;
35026;SDS011;60696;51.426;6.934;2022-09-27T08:06:29;3.15;;;1.30;;
35026;SDS011;60696;51.426;6.934;2022-09-27T08:08:55;4.72;;;1.50;;
35026;SDS011;60696;51.426;6.934;2022-09-27T08:11:22;3.00;;;1.10;;
35026;SDS011;60696;51.426;6.934;2022-09-27T08:13:48;4.35;;;1.23;;
35026;SDS011;60696;51.426;6.934;2022-09-27T08:16:16;3.65;;;1.20;;
35026;SDS011;60696;51.426;6.934;2022-09-27T08:18:42;1.98;;;0.90;;
35026;SDS011;60696;51.426;6.934;2022-09-27T08:21:08;4.32;;;1.25;;
35026;SDS011;60696;51.426;6.934;2022-09-27T08:23:34;3.25;;;0.95;;
35026;SDS011;60696;51.426;6.934;2022-09-27T08:26:00;4.75;;;1.73;;
35026;SDS011;60696;51.426;6.934;2022-09-27T08:28:26;4.32;;;1.17;;
35026;SDS011;60696;51.426;6.934;2022-09-27T08:30:52;4.72;;;1.45;;
35026;SDS011;60696;51.426;6.934;2022-09-27T08:33:17;1.88;;;1.05;;
35026;SDS011;60696;51.426;6.934;2022-09-27T08:35:43;3.25;;;0.90;;
35026;SDS011;60696;51.426;6.934;2022-09-27T08:38:09;3.83;;;1.15;;
35026;SDS011;60696;51.426;6.934;2022-09-27T08:45:37;2.92;;;0.68;;
35026;SDS011;60696;51.426;6.934;2022-09-27T08:48:14;2.63;;;0.50;;
35026;SDS011;60696;51.426;6.934;2022-09-27T08:50:40;3.33;;;1.02;;
35026;SDS011;60696;51.426;6.934;2022-09-27T08:55:51;2.15;;;0.98;;
35026;SDS011;60696;51.426;6.934;2022-09-27T08:58:27;2.45;;;0.70;;
35026;SDS011;60696;51.426;6.934;2022-09-27T09:00:57;2.08;;;0.70;;
35026;SDS011;60696;51.426;6.934;2022-09-27T09:03:28;2.45;;;0.70;;
35026;SDS011;60696;51.426;6.934;2022-09-27T09:17:34;2.70;;;1.30;;
35026;SDS011;60696;51.426;6.934;2022-09-27T09:23:21;5.60;;;1.52;;
35026;SDS011;60696;51.426;6.934;2022-09-27T09:26:13;7.05;;;1.52;;
35026;SDS011;60696;51.426;6.934;2022-09-27T09:29:09;1.80;;;0.90;;
35026;SDS011;60696;51.426;6.934;2022-09-27T09:34:24;1.75;;;0.73;;
35026;SDS011;60696;51.426;6.934;2022-09-27T09:39:33;2.92;;;0.80;;
35026;SDS011;60696;51.426;6.934;2022-09-27T09:42:09;1.75;;;0.95;;
35026;SDS011;60696;51.426;6.934;2022-09-27T09:45:27;1.73;;;0.85;;
35026;SDS011;60696;51.426;6.934;2022-09-27T09:47:37;2.78;;;0.88;;
35026;SDS011;60696;51.426;6.934;2022-09-27T09:50:21;3.10;;;1.00;;
35026;SDS011;60696;51.426;6.934;2022-09-27T09:52:53;4.18;;;1.20;;
35026;SDS011;60696;51.426;6.934;2022-09-27T09:55:24;3.78;;;1.42;;
35026;SDS011;60696;51.426;6.934;2022-09-27T09:58:01;2.83;;;1.30;;
35026;SDS011;60696;51.426;6.934;2022-09-27T10:00:47;2.13;;;1.20;;
35026;SDS011;60696;51.426;6.934;2022-09-27T10:03:17;6.05;;;1.42;;
35026;SDS011;60696;51.426;6.934;2022-09-27T10:05:44;3.80;;;1.77;;
35026;SDS011;60696;51.426;6.934;2022-09-27T10:08:20;3.28;;;1.67;;
35026;SDS011;60696;51.426;6.934;2022-09-27T10:10:48;3.30;;;1.48;;
35026;SDS011;60696;51.426;6.934;2022-09-27T10:13:14;2.53;;;1.65;;
35026;SDS011;60696;51.426;6.934;2022-09-27T10:15:44;3.75;;;1.30;;
35026;SDS011;60696;51.426;6.934;2022-09-27T10:18:26;3.72;;;1.42;;
35026;SDS011;60696;51.426;6.934;2022-09-27T10:20:54;3.50;;;1.60;;
35026;SDS011;60696;51.426;6.934;2022-09-27T10:23:23;3.97;;;1.52;;
35026;SDS011;60696;51.426;6.934;2022-09-27T10:25:57;4.43;;;1.60;;
35026;SDS011;60696;51.426;6.934;2022-09-27T10:28:43;5.72;;;1.88;;
35026;SDS011;60696;51.426;6.934;2022-09-27T10:31:18;4.28;;;1.20;;
35026;SDS011;60696;51.426;6.934;2022-09-27T10:36:31;4.95;;;1.70;;
35026;SDS011;60696;51.426;6.934;2022-09-27T10:39:03;5.82;;;1.67;;
35026;SDS011;60696;51.426;6.934;2022-09-27T10:41:34;5.50;;;1.73;;
35026;SDS011;60696;51.426;6.934;2022-09-27T10:46:40;2.97;;;1.23;;
35026;SDS011;60696;51.426;6.934;2022-09-27T10:49:21;3.55;;;1.40;;
35026;SDS011;60696;51.426;6.934;2022-09-27T10:51:52;2.47;;;1.15;;
35026;SDS011;60696;51.426;6.934;2022-09-27T10:54:23;2.47;;;1.00;;
35026;SDS011;60696;51.426;6.934;2022-09-27T10:59:39;3.10;;;0.85;;
35026;SDS011;60696;51.426;6.934;2022-09-27T11:02:23;2.97;;;1.00;;
35026;SDS011;60696;51.426;6.934;2022-09-27T11:05:10;2.53;;;0.70;;
35026;SDS011;60696;51.426;6.934;2022-09-27T11:07:51;5.38;;;1.02;;
35026;SDS011;60696;51.426;6.934;2022-09-27T11:13:07;1.35;;;0.60;;
35026;SDS011;60696;51.426;6.934;2022-09-27T11:18:22;6.82;;;1.20;;
35026;SDS011;60696;51.426;6.934;2022-09-27T11:21:13;2.22;;;0.88;;
35026;SDS011;60696;51.426;6.934;2022-09-27T11:37:25;3.90;;;1.50;;
35026;SDS011;60696;51.426;6.934;2022-09-27T11:42:59;3.33;;;1.42;;
35026;SDS011;60696;51.426;6.934;2022-09-27T11:51:04;4.97;;;1.73;;
35026;SDS011;60696;51.426;6.934;2022-09-27T11:53:40;4.38;;;1.20;;
35026;SDS011;60696;51.426;6.934;2022-09-27T11:56:31;1.67;;;1.10;;
35026;SDS011;60696;51.426;6.934;2022-09-27T11:59:12;3.83;;;1.20;;
35026;SDS011;60696;51.426;6.934;2022-09-27T12:01:55;2.45;;;1.73;;
35026;SDS011;60696;51.426;6.934;2022-09-27T12:10:08;2.42;;;1.80;;
35026;SDS011;60696;51.426;6.934;2022-09-27T12:12:38;2.75;;;1.70;;
35026;SDS011;60696;51.426;6.934;2022-09-27T12:15:13;5.68;;;2.50;;
35026;SDS011;60696;51.426;6.934;2022-09-27T12:17:47;4.50;;;2.60;;
35026;SDS011;60696;51.426;6.934;2022-09-27T12:20:21;5.15;;;2.50;;
35026;SDS011;60696;51.426;6.934;2022-09-27T12:22:57;6.90;;;3.53;;
35026;SDS011;60696;51.426;6.934;2022-09-27T12:25:30;4.70;;;2.55;;
35026;SDS011;60696;51.426;6.934;2022-09-27T12:28:07;5.63;;;2.28;;
35026;SDS011;60696;51.426;6.934;2022-09-27T12:30:39;4.63;;;2.63;;
35026;SDS011;60696;51.426;6.934;2022-09-27T12:33:31;5.78;;;2.40;;
35026;SDS011;60696;51.426;6.934;2022-09-27T12:36:04;4.65;;;3.10;;
35026;SDS011;60696;51.426;6.934;2022-09-27T12:38:37;6.38;;;2.95;;
35026;SDS011;60696;51.426;6.934;2022-09-27T12:41:08;7.22;;;2.80;;
35026;SDS011;60696;51.426;6.934;2022-09-27T12:43:38;4.95;;;2.83;;
35026;SDS011;60696;51.426;6.934;2022-09-27T12:48:59;4.85;;;3.10;;
35026;SDS011;60696;51.426;6.934;2022-09-27T12:51:37;4.95;;;2.60;;
35026;SDS011;60696;51.426;6.934;2022-09-27T12:54:35;4.63;;;2.80;;
35026;SDS011;60696;51.426;6.934;2022-09-27T12:57:34;3.88;;;2.05;;
35026;SDS011;60696;51.426;6.934;2022-09-27T13:00:25;1.63;;;1.38;;
35026;SDS011;60696;51.426;6.934;2022-09-27T13:14:28;2.95;;;1.75;;
35026;SDS011;60696;51.426;6.934;2022-09-27T13:16:58;5.03;;;2.20;;
35026;SDS011;60696;51.426;6.934;2022-09-27T13:19:40;4.60;;;1.83;;
35026;SDS011;60696;51.426;6.934;2022-09-27T13:24:45;6.07;;;2.70;;
35026;SDS011;60696;51.426;6.934;2022-09-27T13:29:52;3.97;;;2.15;;
35026;SDS011;60696;51.426;6.934;2022-09-27T13:32:37;5.07;;;2.42;;
35026;SDS011;60696;51.426;6.934;2022-09-27T13:35:11;6.03;;;2.10;;
35026;SDS011;60696;51.426;6.934;2022-09-27T13:37:47;3.85;;;1.80;;
35026;SDS011;60696;51.426;6.934;2022-09-27T13:45:19;3.22;;;2.20;;
35026;SDS011;60696;51.426;6.934;2022-09-27T13:47:59;4.70;;;1.67;;
35026;SDS011;60696;51.426;6.934;2022-09-27T13:50:46;5.07;;;1.42;;
35026;SDS011;60696;51.426;6.934;2022-09-27T13:53:27;2.10;;;1.20;;
35026;SDS011;60696;51.426;6.934;2022-09-27T13:55:58;1.67;;;0.80;;
35026;SDS011;60696;51.426;6.934;2022-09-27T13:58:31;8.80;;;3.65;;
35026;SDS011;60696;51.426;6.934;2022-09-27T14:01:18;1.20;;;0.90;;
35026;SDS011;60696;51.426;6.934;2022-09-27T14:03:58;2.67;;;0.88;;
35026;SDS011;60696;51.426;6.934;2022-09-27T14:06:30;2.88;;;1.20;;
35026;SDS011;60696;51.426;6.934;2022-09-27T14:09:02;2.30;;;0.98;;
35026;SDS011;60696;51.426;6.934;2022-09-27T14:11:32;1.50;;;0.73;;
35026;SDS011;60696;51.426;6.934;2022-09-27T14:14:02;2.17;;;0.98;;
35026;SDS011;60696;51.426;6.934;2022-09-27T14:16:32;0.80;;;0.60;;
35026;SDS011;60696;51.426;6.934;2022-09-27T14:18:59;1.70;;;0.60;;
35026;SDS011;60696;51.426;6.934;2022-09-27T14:24:13;1.88;;;0.60;;
35026;SDS011;60696;51.426;6.934;2022-09-27T14:27:03;1.25;;;0.40;;
35026;SDS011;60696;51.426;6.934;2022-09-27T14:29:30;0.98;;;0.50;;
35026;SDS011;60696;51.426;6.934;2022-09-27T14:32:05;1.40;;;0.80;;
35026;SDS011;60696;51.426;6.934;2022-09-27T14:34:34;1.70;;;0.50;;
35026;SDS011;60696;51.426;6.934;2022-09-27T14:37:00;1.60;;;0.70;;
35026;SDS011;60696;51.426;6.934;2022-09-27T14:39:45;1.73;;;0.63;;
35026;SDS011;60696;51.426;6.934;2022-09-27T14:42:19;1.48;;;0.52;;
35026;SDS011;60696;51.426;6.934;2022-09-27T14:44:46;2.50;;;0.80;;
35026;SDS011;60696;51.426;6.934;2022-09-27T14:47:20;2.42;;;0.60;;
35026;SDS011;60696;51.426;6.934;2022-09-27T14:49:48;1.42;;;0.60;;
35026;SDS011;60696;51.426;6.934;2022-09-27T14:52:16;3.15;;;0.70;;
35026;SDS011;60696;51.426;6.934;2022-09-27T14:54:55;3.22;;;0.47;;
35026;SDS011;60696;51.426;6.934;2022-09-27T14:57:22;2.35;;;0.60;;
35026;SDS011;60696;51.426;6.934;2022-09-27T14:59:48;1.75;;;0.70;;
35026;SDS011;60696;51.426;6.934;2022-09-27T15:02:16;1.33;;;0.60;;
35026;SDS011;60696;51.426;6.934;2022-09-27T15:04:45;2.08;;;0.50;;
35026;SDS011;60696;51.426;6.934;2022-09-27T15:07:11;3.78;;;0.70;;
35026;SDS011;60696;51.426;6.934;2022-09-27T15:09:39;2.90;;;0.60;;
35026;SDS011;60696;51.426;6.934;2022-09-27T15:12:05;1.95;;;0.70;;
35026;SDS011;60696;51.426;6.934;2022-09-27T15:14:32;1.05;;;0.52;;
35026;SDS011;60696;51.426;6.934;2022-09-27T15:17:01;5.95;;;0.50;;
35026;SDS011;60696;51.426;6.934;2022-09-27T15:19:30;1.83;;;0.50;;
35026;SDS011;60696;51.426;6.934;2022-09-27T15:22:07;3.70;;;0.50;;
35026;SDS011;60696;51.426;6.934;2022-09-27T15:25:03;1.13;;;0.50;;
35026;SDS011;60696;51.426;6.934;2022-09-27T15:27:30;3.42;;;0.63;;
35026;SDS011;60696;51.426;6.934;2022-09-27T15:29:56;8.75;;;0.77;;
35026;SDS011;60696;51.426;6.934;2022-09-27T15:32:23;4.85;;;0.70;;
35026;SDS011;60696;51.426;6.934;2022-09-27T15:34:51;4.78;;;1.73;;
35026;SDS011;60696;51.426;6.934;2022-09-27T15:37:27;3.85;;;0.50;;
35026;SDS011;60696;51.426;6.934;2022-09-27T15:40:05;2.95;;;0.60;;
35026;SDS011;60696;51.426;6.934;2022-09-27T15:43:02;1.77;;;0.60;;
35026;SDS011;60696;51.426;6.934;2022-09-27T15:45:34;1.83;;;0.40;;
35026;SDS011;60696;51.426;6.934;2022-09-27T15:48:13;2.08;;;0.50;;
35026;SDS011;60696;51.426;6.934;2022-09-27T15:50:40;2.17;;;0.77;;
35026;SDS011;60696;51.426;6.934;2022-09-27T15:53:06;6.85;;;0.73;;
35026;SDS011;60696;51.426;6.934;2022-09-27T15:55:35;5.32;;;0.85;;
35026;SDS011;60696;51.426;6.934;2022-09-27T15:58:07;2.75;;;0.85;;
35026;SDS011;60696;51.426;6.934;2022-09-27T16:00:49;3.20;;;0.70;;
35026;SDS011;60696;51.426;6.934;2022-09-27T16:03:22;4.05;;;0.73;;
35026;SDS011;60696;51.426;6.934;2022-09-27T16:05:51;3.20;;;0.80;;
35026;SDS011;60696;51.426;6.934;2022-09-27T16:08:17;3.03;;;0.98;;
35026;SDS011;60696;51.426;6.934;2022-09-27T16:10:48;5.43;;;1.60;;
35026;SDS011;60696;51.426;6.934;2022-09-27T16:13:16;2.75;;;1.17;;
35026;SDS011;60696;51.426;6.934;2022-09-27T16:15:42;5.00;;;1.20;;
35026;SDS011;60696;51.426;6.934;2022-09-27T16:18:09;5.72;;;1.63;;
35026;SDS011;60696;51.426;6.934;2022-09-27T16:20:35;3.40;;;1.30;;
35026;SDS011;60696;51.426;6.934;2022-09-27T16:23:01;4.38;;;1.27;;
35026;SDS011;60696;51.426;6.934;2022-09-27T16:25:26;4.10;;;1.05;;
35026;SDS011;60696;51.426;6.934;2022-09-27T16:27:53;2.58;;;0.98;;
35026;SDS011;60696;51.426;6.934;2022-09-27T16:30:22;3.50;;;1.05;;
35026;SDS011;60696;51.426;6.934;2022-09-27T16:32:48;2.63;;;1.10;;
35026;SDS011;60696;51.426;6.934;2022-09-27T16:35:15;2.35;;;0.90;;
35026;SDS011;60696;51.426;6.934;2022-09-27T16:37:41;6.20;;;1.10;;
35026;SDS011;60696;51.426;6.934;2022-09-27T16:40:08;2.90;;;0.90;;
35026;SDS011;60696;51.426;6.934;2022-09-27T16:42:35;4.85;;;0.93;;
35026;SDS011;60696;51.426;6.934;2022-09-27T16:45:02;4.28;;;1.08;;
35026;SDS011;60696;51.426;6.934;2022-09-27T16:47:28;2.03;;;0.80;;
35026;SDS011;60696;51.426;6.934;2022-09-27T16:49:54;2.35;;;0.68;;
35026;SDS011;60696;51.426;6.934;2022-09-27T16:52:38;2.15;;;0.70;;
35026;SDS011;60696;51.426;6.934;2022-09-27T16:55:06;3.50;;;0.60;;
35026;SDS011;60696;51.426;6.934;2022-09-27T16:57:33;1.77;;;0.60;;
35026;SDS011;60696;51.426;6.934;2022-09-27T16:59:59;1.50;;;0.60;;
35026;SDS011;60696;51.426;6.934;2022-09-27T17:02:25;5.43;;;1.20;;
35026;SDS011;60696;51.426;6.934;2022-09-27T17:04:51;2.05;;;0.60;;
35026;SDS011;60696;51.426;6.934;2022-09-27T17:07:17;2.28;;;0.60;;
35026;SDS011;60696;51.426;6.934;2022-09-27T17:09:43;1.98;;;0.70;;
35026;SDS011;60696;51.426;6.934;2022-09-27T17:12:09;2.60;;;0.52;;
35026;SDS011;60696;51.426;6.934;2022-09-27T17:14:36;2.30;;;0.60;;
35026;SDS011;60696;51.426;6.934;2022-09-27T17:17:01;1.98;;;0.35;;
35026;SDS011;60696;51.426;6.934;2022-09-27T17:19:27;3.33;;;0.40;;
35026;SDS011;60696;51.426;6.934;2022-09-27T17:21:53;1.42;;;0.70;;
35026;SDS011;60696;51.426;6.934;2022-09-27T17:24:21;2.22;;;0.60;;